createdAt,value
2017-12-03T00:00:26.966Z,98744.86
2017-12-03T00:01:31.743Z,98741.11
2017-12-03T00:02:36.807Z,98741.11
2017-12-03T00:03:42.578Z,98736.52
2017-12-03T00:04:47.251Z,98734.86
2017-12-03T00:05:52.496Z,98731.63
2017-12-03T00:06:57.201Z,98728.34
2017-12-03T00:08:01.888Z,98728.34
2017-12-03T00:09:06.574Z,98728.34
2017-12-03T00:10:11.493Z,98732.83
2017-12-03T00:11:16.218Z,98736.11
2017-12-03T00:12:21.450Z,98732.41
2017-12-03T00:13:26.099Z,98734.45
2017-12-03T00:14:30.730Z,98722.17
2017-12-03T00:15:35.415Z,98722.17
2017-12-03T00:16:40.167Z,98723.36
2017-12-03T00:17:44.899Z,98723.68
2017-12-03T00:18:50.145Z,98722.13
2017-12-03T00:19:54.903Z,98726.63
2017-12-03T00:20:59.654Z,98720.86
2017-12-03T00:22:04.377Z,98722.45
2017-12-03T00:23:08.987Z,98717.52
2017-12-03T00:24:13.611Z,98724.98
2017-12-03T00:25:18.920Z,98722.51
2017-12-03T00:26:23.572Z,98724.11
2017-12-03T00:27:28.325Z,98727.86
2017-12-03T00:28:32.996Z,98722.87
2017-12-03T00:29:37.704Z,98727.45
2017-12-03T00:30:42.331Z,98725.75
2017-12-03T00:31:47.391Z,98725.75
2017-12-03T00:32:51.996Z,98730.27
2017-12-03T00:33:56.639Z,98729.44
2017-12-03T00:35:01.316Z,98729.92
2017-12-03T00:36:06.029Z,98731.64
2017-12-03T00:37:10.786Z,98739.39
2017-12-03T00:38:16.004Z,98738.16
2017-12-03T00:39:20.784Z,98738.56
2017-12-03T00:40:25.482Z,98739.39
2017-12-03T00:41:30.187Z,98736.08
2017-12-03T00:42:34.904Z,98730.75
2017-12-03T00:43:39.609Z,98732.00
2017-12-03T00:44:44.711Z,98729.57
2017-12-03T00:45:49.456Z,98727.87
2017-12-03T00:46:54.224Z,98728.76
2017-12-03T00:47:58.944Z,98726.64
2017-12-03T00:49:03.729Z,98731.92
2017-12-03T00:50:08.551Z,98724.09
2017-12-03T00:51:13.667Z,98728.22
2017-12-03T00:52:18.439Z,98728.33
2017-12-03T00:53:23.165Z,98724.56
2017-12-03T00:54:27.914Z,98723.81
2017-12-03T00:55:32.668Z,98729.09
2017-12-03T00:56:37.386Z,98725.81
2017-12-03T00:57:42.651Z,98726.29
2017-12-03T00:58:47.432Z,98723.81
2017-12-03T00:59:52.205Z,98728.77
2017-12-03T01:00:56.970Z,98733.23
2017-12-03T01:02:01.708Z,98730.73
2017-12-03T01:03:06.468Z,98728.77
2017-12-03T01:04:11.695Z,98723.36
2017-12-03T01:05:16.419Z,98729.10
2017-12-03T01:06:21.225Z,98727.94
2017-12-03T01:07:26.015Z,98723.42
2017-12-03T01:08:30.736Z,98725.83
2017-12-03T01:09:35.493Z,98720.48
2017-12-03T01:10:40.270Z,98720.45
2017-12-03T01:11:45.016Z,98722.12
2017-12-03T01:12:49.726Z,98717.59
2017-12-03T01:13:54.440Z,98712.23
2017-12-03T01:14:59.160Z,98710.20
2017-12-03T01:16:04.464Z,98709.79
2017-12-03T01:17:09.361Z,98706.55
2017-12-03T01:18:14.146Z,98711.84
2017-12-03T01:19:18.690Z,98711.48
2017-12-03T01:20:23.338Z,98709.42
2017-12-03T01:21:27.920Z,98714.30
2017-12-03T01:22:32.977Z,98716.77
2017-12-03T01:23:37.641Z,98712.24
2017-12-03T01:24:42.250Z,98717.59
2017-12-03T01:25:46.949Z,98717.19
2017-12-03T01:26:51.541Z,98714.30
2017-12-03T01:27:56.183Z,98716.34
2017-12-03T01:29:01.045Z,98715.52
2017-12-03T01:30:05.752Z,98718.31
2017-12-03T01:31:10.472Z,98714.24
2017-12-03T01:32:15.180Z,98717.11
2017-12-03T01:33:19.912Z,98717.16
2017-12-03T01:34:24.922Z,98713.81
2017-12-03T01:35:29.697Z,98716.77
2017-12-03T01:36:34.409Z,98715.47
2017-12-03T01:37:39.100Z,98719.23
2017-12-03T01:38:43.793Z,98715.94
2017-12-03T01:39:48.534Z,98715.86
2017-12-03T01:40:54.519Z,98714.28
2017-12-03T01:41:59.222Z,98708.89
2017-12-03T01:43:03.909Z,98710.50
2017-12-03T01:44:08.573Z,98707.30
2017-12-03T01:45:13.123Z,98709.29
2017-12-03T01:46:17.711Z,98713.83
2017-12-03T01:47:22.699Z,98706.88
2017-12-03T01:48:27.379Z,98712.17
2017-12-03T01:49:32.126Z,98711.44
2017-12-03T01:50:36.712Z,98713.07
2017-12-03T01:51:41.347Z,98712.23
2017-12-03T01:52:45.982Z,98713.47
2017-12-03T01:53:51.067Z,98719.63
2017-12-03T01:54:56.719Z,98720.48
2017-12-03T01:56:01.352Z,98720.93
2017-12-03T01:57:06.043Z,98727.89
2017-12-03T01:58:10.673Z,98723.88
2017-12-03T01:59:15.993Z,98723.77
2017-12-03T02:00:20.793Z,98725.82
2017-12-03T02:01:25.265Z,98718.80
2017-12-03T02:02:29.866Z,98718.76
2017-12-03T02:03:34.490Z,98718.40
2017-12-03T02:04:39.043Z,98724.18
2017-12-03T02:05:43.696Z,98716.38
2017-12-03T02:06:48.835Z,98714.73
2017-12-03T02:07:53.457Z,98720.47
2017-12-03T02:08:58.133Z,98715.92
2017-12-03T02:10:02.841Z,98718.00
2017-12-03T02:11:07.615Z,98716.77
2017-12-03T02:12:12.277Z,98713.53
2017-12-03T02:13:17.283Z,98714.30
2017-12-03T02:14:21.960Z,98713.48
2017-12-03T02:15:26.610Z,98707.32
2017-12-03T02:16:31.464Z,98709.02
2017-12-03T02:17:36.132Z,98711.48
2017-12-03T02:18:40.881Z,98707.72
2017-12-03T02:19:46.088Z,98708.56
2017-12-03T02:20:50.913Z,98710.19
2017-12-03T02:21:55.674Z,98702.80
2017-12-03T02:23:00.489Z,98701.14
2017-12-03T02:24:05.330Z,98710.17
2017-12-03T02:25:10.057Z,98702.37
2017-12-03T02:26:15.198Z,98705.26
2017-12-03T02:27:19.989Z,98705.25
2017-12-03T02:28:24.765Z,98705.67
2017-12-03T02:29:29.483Z,98711.00
2017-12-03T02:30:34.207Z,98696.22
2017-12-03T02:31:38.921Z,98704.36
2017-12-03T02:32:44.213Z,98703.55
2017-12-03T02:33:49.164Z,98695.38
2017-12-03T02:34:53.884Z,98702.70
2017-12-03T02:35:58.601Z,98696.62
2017-12-03T02:37:03.399Z,98696.20
2017-12-03T02:38:08.129Z,98703.13
2017-12-03T02:39:13.249Z,98705.56
2017-12-03T02:40:17.985Z,98704.34
2017-12-03T02:41:22.717Z,98699.75
2017-12-03T02:42:27.295Z,98699.40
2017-12-03T02:43:31.896Z,98698.16
2017-12-03T02:44:36.697Z,98686.27
2017-12-03T02:45:42.065Z,98699.42
2017-12-03T02:46:46.816Z,98695.30
2017-12-03T02:47:51.527Z,98690.39
2017-12-03T02:48:56.544Z,98691.19
2017-12-03T02:50:01.283Z,98687.89
2017-12-03T02:51:06.364Z,98695.23
2017-12-03T02:52:11.105Z,98694.40
2017-12-03T02:53:15.931Z,98688.30
2017-12-03T02:54:21.069Z,98689.95
2017-12-03T02:55:25.897Z,98691.22
2017-12-03T02:56:30.682Z,98689.58
2017-12-03T02:57:35.877Z,98693.25
2017-12-03T02:58:40.667Z,98687.09
2017-12-03T02:59:45.385Z,98684.61
2017-12-03T03:00:50.250Z,98688.26
2017-12-03T03:01:55.065Z,98684.59
2017-12-03T03:02:59.789Z,98689.54
2017-12-03T03:04:05.078Z,98686.59
2017-12-03T03:05:10.078Z,98684.13
2017-12-03T03:06:14.837Z,98685.38
2017-12-03T03:07:19.696Z,98687.42
2017-12-03T03:08:24.429Z,98685.44
2017-12-03T03:09:29.221Z,98678.44
2017-12-03T03:10:34.517Z,98681.31
2017-12-03T03:11:39.265Z,98680.48
2017-12-03T03:12:44.014Z,98683.32
2017-12-03T03:13:48.820Z,98683.39
2017-12-03T03:14:53.510Z,98683.37
2017-12-03T03:15:58.207Z,98680.91
2017-12-03T03:17:03.346Z,98677.16
2017-12-03T03:18:08.080Z,98672.22
2017-12-03T03:19:12.807Z,98670.58
2017-12-03T03:20:17.554Z,98675.92
2017-12-03T03:21:22.253Z,98670.16
2017-12-03T03:22:26.984Z,98668.53
2017-12-03T03:23:32.069Z,98672.70
2017-12-03T03:24:36.810Z,98663.17
2017-12-03T03:25:41.606Z,98665.64
2017-12-03T03:26:46.399Z,98666.06
2017-12-03T03:27:51.153Z,98661.11
2017-12-03T03:28:55.872Z,98656.66
2017-12-03T03:30:00.606Z,98661.53
2017-12-03T03:31:05.359Z,98658.23
2017-12-03T03:32:10.096Z,98650.44
2017-12-03T03:33:14.813Z,98652.50
2017-12-03T03:34:19.559Z,98649.63
2017-12-03T03:35:24.769Z,98645.88
2017-12-03T03:36:29.568Z,98642.95
2017-12-03T03:37:34.288Z,98643.78
2017-12-03T03:38:39.060Z,98644.59
2017-12-03T03:39:43.781Z,98644.23
2017-12-03T03:40:48.490Z,98645.08
2017-12-03T03:41:53.716Z,98643.83
2017-12-03T03:42:58.482Z,98645.88
2017-12-03T03:44:03.111Z,98646.72
2017-12-03T03:45:07.786Z,98640.97
2017-12-03T03:46:12.426Z,98642.59
2017-12-03T03:47:17.092Z,98642.59
2017-12-03T03:48:22.200Z,98642.17
2017-12-03T03:49:26.934Z,98648.34
2017-12-03T03:50:31.893Z,98642.59
2017-12-03T03:51:36.619Z,98638.91
2017-12-03T03:52:41.385Z,98640.97
2017-12-03T03:53:46.159Z,98641.70
2017-12-03T03:54:51.312Z,98640.55
2017-12-03T03:55:56.034Z,98640.08
2017-12-03T03:57:00.818Z,98644.27
2017-12-03T03:58:05.635Z,98641.00
2017-12-03T03:59:10.401Z,98642.22
2017-12-03T04:00:15.291Z,98646.31
2017-12-03T04:01:20.461Z,98640.22
2017-12-03T04:02:25.236Z,98646.70
2017-12-03T04:03:30.030Z,98643.02
2017-12-03T04:04:34.877Z,98645.48
2017-12-03T04:05:39.635Z,98650.00
2017-12-03T04:06:44.340Z,98647.48
2017-12-03T04:07:49.508Z,98645.83
2017-12-03T04:08:54.261Z,98646.70
2017-12-03T04:09:59.000Z,98647.95
2017-12-03T04:11:03.810Z,98642.19
2017-12-03T04:12:08.607Z,98638.12
2017-12-03T04:13:13.396Z,98635.55
2017-12-03T04:14:18.685Z,98637.67
2017-12-03T04:15:23.453Z,98634.41
2017-12-03T04:16:28.227Z,98640.16
2017-12-03T04:17:33.008Z,98638.50
2017-12-03T04:18:37.739Z,98642.21
2017-12-03T04:19:42.540Z,98638.84
2017-12-03T04:20:47.828Z,98640.88
2017-12-03T04:21:52.814Z,98644.58
2017-12-03T04:22:57.554Z,98645.88
2017-12-03T04:24:02.330Z,98645.09
2017-12-03T04:25:07.079Z,98646.38
2017-12-03T04:26:11.801Z,98643.92
2017-12-03T04:27:17.017Z,98645.09
2017-12-03T04:28:21.754Z,98646.38
2017-12-03T04:29:26.568Z,98640.63
2017-12-03T04:30:32.391Z,98637.75
2017-12-03T04:31:37.202Z,98646.39
2017-12-03T04:32:42.202Z,98638.58
2017-12-03T04:33:47.465Z,98637.34
2017-12-03T04:34:52.359Z,98641.03
2017-12-03T04:35:57.149Z,98638.16
2017-12-03T04:37:02.093Z,98642.64
2017-12-03T04:38:06.798Z,98644.24
2017-12-03T04:39:11.708Z,98636.44
2017-12-03T04:40:17.008Z,98639.34
2017-12-03T04:41:21.739Z,98643.86
2017-12-03T04:42:26.576Z,98638.91
2017-12-03T04:43:31.357Z,98644.27
2017-12-03T04:44:36.276Z,98642.63
2017-12-03T04:45:41.038Z,98640.58
2017-12-03T04:46:46.385Z,98639.34
2017-12-03T04:47:51.159Z,98631.13
2017-12-03T04:48:55.908Z,98629.13
2017-12-03T04:50:00.636Z,98628.30
2017-12-03T04:51:05.491Z,98626.60
2017-12-03T04:52:10.509Z,98629.94
2017-12-03T04:53:15.575Z,98625.00
2017-12-03T04:54:20.332Z,98627.06
2017-12-03T04:55:25.107Z,98623.36
2017-12-03T04:56:29.839Z,98622.50
2017-12-03T04:57:34.686Z,98621.27
2017-12-03T04:58:39.499Z,98620.44
2017-12-03T04:59:44.820Z,98619.66
2017-12-03T05:00:49.578Z,98617.98
2017-12-03T05:01:54.229Z,98618.31
2017-12-03T05:02:59.025Z,98613.84
2017-12-03T05:04:03.659Z,98612.63
2017-12-03T05:05:08.268Z,98616.74
2017-12-03T05:06:12.882Z,98608.91
2017-12-03T05:07:17.677Z,98619.21
2017-12-03T05:08:22.649Z,98624.96
2017-12-03T05:09:27.609Z,98616.38
2017-12-03T05:10:32.456Z,98616.73
2017-12-03T05:11:37.247Z,98620.86
2017-12-03T05:12:42.431Z,98618.02
2017-12-03T05:13:47.211Z,98621.72
2017-12-03T05:14:51.919Z,98615.95
2017-12-03T05:15:56.677Z,98622.00
2017-12-03T05:17:01.385Z,98619.53
2017-12-03T05:18:06.126Z,98618.38
2017-12-03T05:19:11.253Z,98618.39
2017-12-03T05:20:16.036Z,98613.91
2017-12-03T05:21:20.812Z,98613.45
2017-12-03T05:22:25.634Z,98615.92
2017-12-03T05:23:30.383Z,98613.91
2017-12-03T05:24:35.143Z,98616.78
2017-12-03T05:25:40.902Z,98614.27
2017-12-03T05:26:45.617Z,98613.45
2017-12-03T05:27:50.392Z,98610.98
2017-12-03T05:28:55.242Z,98612.60
2017-12-03T05:29:59.977Z,98616.72
2017-12-03T05:31:04.691Z,98608.91
2017-12-03T05:32:09.790Z,98608.91
2017-12-03T05:33:14.378Z,98610.97
2017-12-03T05:34:18.970Z,98606.40
2017-12-03T05:35:23.726Z,98610.97
2017-12-03T05:36:28.515Z,98602.76
2017-12-03T05:37:33.250Z,98601.94
2017-12-03T05:38:38.439Z,98606.39
2017-12-03T05:39:43.200Z,98601.47
2017-12-03T05:40:47.958Z,98599.86
2017-12-03T05:41:52.692Z,98599.41
2017-12-03T05:42:57.493Z,98597.40
2017-12-03T05:44:02.239Z,98603.17
2017-12-03T05:45:07.329Z,98598.22
2017-12-03T05:46:12.069Z,98600.27
2017-12-03T05:47:16.828Z,98604.80
2017-12-03T05:48:21.569Z,98599.47
2017-12-03T05:49:26.346Z,98605.16
2017-12-03T05:50:31.608Z,98605.22
2017-12-03T05:51:36.845Z,98601.52
2017-12-03T05:52:42.206Z,98610.56
2017-12-03T05:53:46.924Z,98606.87
2017-12-03T05:54:51.668Z,98604.38
2017-12-03T05:55:56.420Z,98605.64
2017-12-03T05:57:01.404Z,98608.51
2017-12-03T05:58:07.453Z,98613.86
2017-12-03T05:59:12.240Z,98604.00
2017-12-03T06:00:17.052Z,98608.97
2017-12-03T06:01:21.857Z,98607.28
2017-12-03T06:02:26.651Z,98607.69
2017-12-03T06:03:31.353Z,98604.39
2017-12-03T06:04:36.826Z,98601.94
2017-12-03T06:05:41.625Z,98604.86
2017-12-03T06:06:46.369Z,98613.09
2017-12-03T06:07:51.174Z,98604.41
2017-12-03T06:08:55.893Z,98606.45
2017-12-03T06:10:00.636Z,98609.32
2017-12-03T06:11:05.723Z,98605.23
2017-12-03T06:12:10.466Z,98609.33
2017-12-03T06:13:15.239Z,98603.58
2017-12-03T06:14:19.870Z,98599.89
2017-12-03T06:15:24.685Z,98603.59
2017-12-03T06:16:29.477Z,98602.77
2017-12-03T06:17:34.561Z,98603.58
2017-12-03T06:18:39.522Z,98606.46
2017-12-03T06:19:44.410Z,98600.30
2017-12-03T06:20:49.102Z,98598.65
2017-12-03T06:21:53.913Z,98598.70
2017-12-03T06:22:58.712Z,98600.30
2017-12-03T06:24:03.927Z,98603.58
2017-12-03T06:25:08.862Z,98605.22
2017-12-03T06:26:13.631Z,98608.09
2017-12-03T06:27:18.444Z,98607.28
2017-12-03T06:28:23.328Z,98608.52
2017-12-03T06:29:28.076Z,98611.39
2017-12-03T06:30:33.149Z,98606.05
2017-12-03T06:31:37.934Z,98610.97
2017-12-03T06:32:42.710Z,98609.76
2017-12-03T06:33:47.760Z,98598.22
2017-12-03T06:34:52.624Z,98603.58
2017-12-03T06:35:57.442Z,98602.34
2017-12-03T06:37:02.580Z,98599.47
2017-12-03T06:38:07.776Z,98604.38
2017-12-03T06:39:14.781Z,98601.53
2017-12-03T06:40:19.686Z,98602.76
2017-12-03T06:41:24.532Z,98605.23
2017-12-03T06:42:29.413Z,98603.17
2017-12-03T06:43:34.496Z,98608.92
2017-12-03T06:44:39.268Z,98600.69
2017-12-03T06:45:44.036Z,98601.95
2017-12-03T06:46:48.810Z,98601.52
2017-12-03T06:47:53.540Z,98601.94
2017-12-03T06:48:58.388Z,98606.05
2017-12-03T06:50:03.184Z,98603.97
2017-12-03T06:51:08.239Z,98609.27
2017-12-03T06:52:13.019Z,98610.16
2017-12-03T06:53:17.802Z,98605.21
2017-12-03T06:54:22.615Z,98608.11
2017-12-03T06:55:27.698Z,98606.86
2017-12-03T06:56:32.353Z,98603.98
2017-12-03T06:57:37.057Z,98604.39
2017-12-03T06:58:41.721Z,98603.58
2017-12-03T06:59:46.452Z,98609.75
2017-12-03T07:00:51.070Z,98610.17
2017-12-03T07:01:56.088Z,98608.52
2017-12-03T07:03:00.856Z,98612.22
2017-12-03T07:04:05.530Z,98609.33
2017-12-03T07:05:10.264Z,98602.34
2017-12-03T07:06:14.949Z,98601.92
2017-12-03T07:07:19.649Z,98606.87
2017-12-03T07:08:24.711Z,98602.33
2017-12-03T07:09:29.450Z,98601.92
2017-12-03T07:10:34.193Z,98601.52
2017-12-03T07:11:38.944Z,98594.12
2017-12-03T07:12:43.621Z,98604.41
2017-12-03T07:13:48.318Z,98602.77
2017-12-03T07:14:53.485Z,98603.58
2017-12-03T07:15:58.185Z,98603.99
2017-12-03T07:17:03.138Z,98604.38
2017-12-03T07:18:07.859Z,98603.98
2017-12-03T07:19:12.568Z,98604.80
2017-12-03T07:20:17.458Z,98606.09
2017-12-03T07:21:22.693Z,98611.80
2017-12-03T07:22:27.542Z,98610.57
2017-12-03T07:23:32.288Z,98607.70
2017-12-03T07:24:37.550Z,98612.21
2017-12-03T07:25:42.301Z,98615.06
2017-12-03T07:26:47.145Z,98611.40
2017-12-03T07:27:51.883Z,98608.11
2017-12-03T07:28:56.677Z,98614.27
2017-12-03T07:30:01.440Z,98613.44
2017-12-03T07:31:06.216Z,98608.50
2017-12-03T07:32:11.036Z,98620.02
2017-12-03T07:33:16.041Z,98614.27
2017-12-03T07:34:21.338Z,98610.98
2017-12-03T07:35:26.184Z,98620.84
2017-12-03T07:36:30.842Z,98614.73
2017-12-03T07:37:35.787Z,98615.90
2017-12-03T07:38:40.930Z,98618.38
2017-12-03T07:39:46.050Z,98618.37
2017-12-03T07:40:51.590Z,98620.03
2017-12-03T07:41:57.065Z,98621.68
2017-12-03T07:43:01.837Z,98623.70
2017-12-03T07:44:06.851Z,98622.46
2017-12-03T07:45:11.657Z,98623.28
2017-12-03T07:46:16.703Z,98617.97
2017-12-03T07:47:21.897Z,98620.81
2017-12-03T07:48:26.626Z,98619.20
2017-12-03T07:49:31.449Z,98618.38
2017-12-03T07:50:36.218Z,98620.02
2017-12-03T07:51:41.147Z,98618.39
2017-12-03T07:52:46.290Z,98619.26
2017-12-03T07:53:51.859Z,98618.02
2017-12-03T07:54:56.608Z,98622.88
2017-12-03T07:56:01.407Z,98619.21
2017-12-03T07:57:06.269Z,98613.87
2017-12-03T07:58:11.080Z,98618.37
2017-12-03T07:59:15.882Z,98612.63
2017-12-03T08:00:21.825Z,98618.84
2017-12-03T08:01:26.651Z,98617.14
2017-12-03T08:02:31.422Z,98622.09
2017-12-03T08:03:36.285Z,98619.66
2017-12-03T08:04:41.073Z,98622.54
2017-12-03T08:05:45.725Z,98623.77
2017-12-03T08:06:50.879Z,98626.98
2017-12-03T08:07:55.565Z,98618.38
2017-12-03T08:09:00.240Z,98623.78
2017-12-03T08:10:04.924Z,98617.20
2017-12-03T08:11:09.594Z,98622.09
2017-12-03T08:12:14.304Z,98622.95
2017-12-03T08:13:19.421Z,98627.89
2017-12-03T08:14:24.168Z,98632.83
2017-12-03T08:15:28.851Z,98624.55
2017-12-03T08:16:33.628Z,98633.23
2017-12-03T08:17:38.234Z,98625.82
2017-12-03T08:18:43.197Z,98627.01
2017-12-03T08:19:48.105Z,98624.61
2017-12-03T08:20:52.657Z,98628.73
2017-12-03T08:21:57.284Z,98625.88
2017-12-03T08:23:02.042Z,98628.71
2017-12-03T08:24:06.806Z,98626.25
2017-12-03T08:25:11.469Z,98624.61
2017-12-03T08:26:16.641Z,98621.72
2017-12-03T08:27:21.325Z,98620.91
2017-12-03T08:28:26.069Z,98625.43
2017-12-03T08:29:30.793Z,98620.08
2017-12-03T08:30:35.325Z,98620.49
2017-12-03T08:31:39.892Z,98624.61
2017-12-03T08:32:44.848Z,98620.85
2017-12-03T08:33:49.562Z,98624.55
2017-12-03T08:34:54.240Z,98629.53
2017-12-03T08:35:58.905Z,98630.37
2017-12-03T08:37:03.639Z,98629.07
2017-12-03T08:38:08.516Z,98629.89
2017-12-03T08:39:13.236Z,98630.77
2017-12-03T08:40:17.945Z,98626.70
2017-12-03T08:41:22.616Z,98626.30
2017-12-03T08:42:27.504Z,98630.41
2017-12-03T08:43:32.224Z,98625.03
2017-12-03T08:44:38.724Z,98630.77
2017-12-03T08:45:44.048Z,98630.41
2017-12-03T08:46:48.829Z,98627.89
2017-12-03T08:47:53.536Z,98625.06
2017-12-03T08:48:58.207Z,98620.95
2017-12-03T08:50:03.254Z,98618.07
2017-12-03T08:51:08.168Z,98620.50
2017-12-03T08:52:13.783Z,98621.77
2017-12-03T08:53:18.567Z,98615.56
2017-12-03T08:54:23.216Z,98622.59
2017-12-03T08:55:27.956Z,98618.84
2017-12-03T08:56:32.610Z,98617.25
2017-12-03T08:57:37.716Z,98614.33
2017-12-03T08:58:42.367Z,98611.45
2017-12-03T08:59:47.065Z,98615.15
2017-12-03T09:00:51.634Z,98610.26
2017-12-03T09:01:56.382Z,98618.86
2017-12-03T09:03:01.114Z,98615.97
2017-12-03T09:04:06.116Z,98614.28
2017-12-03T09:05:10.806Z,98614.33
2017-12-03T09:06:15.437Z,98625.03
2017-12-03T09:07:20.255Z,98617.62
2017-12-03T09:08:25.021Z,98614.78
2017-12-03T09:09:29.707Z,98617.62
2017-12-03T09:10:34.761Z,98619.67
2017-12-03T09:11:39.607Z,98615.09
2017-12-03T09:12:44.404Z,98620.48
2017-12-03T09:13:49.292Z,98620.09
2017-12-03T09:14:54.317Z,98623.38
2017-12-03T09:15:59.221Z,98627.48
2017-12-03T09:17:04.343Z,98622.55
2017-12-03T09:18:09.114Z,98623.78
2017-12-03T09:19:13.921Z,98623.79
2017-12-03T09:20:18.705Z,98625.06
2017-12-03T09:21:23.474Z,98621.73
2017-12-03T09:22:28.355Z,98619.30
2017-12-03T09:23:33.480Z,98626.25
2017-12-03T09:24:38.382Z,98618.45
2017-12-03T09:25:43.145Z,98620.95
2017-12-03T09:26:47.964Z,98624.23
2017-12-03T09:27:52.773Z,98628.36
2017-12-03T09:28:57.608Z,98627.49
2017-12-03T09:30:02.580Z,98625.88
2017-12-03T09:31:08.317Z,98627.95
2017-12-03T09:32:13.029Z,98623.01
2017-12-03T09:33:17.757Z,98621.78
2017-12-03T09:34:22.667Z,98625.06
2017-12-03T09:35:27.527Z,98623.01
2017-12-03T09:36:32.432Z,98625.06
2017-12-03T09:37:37.130Z,98622.97
2017-12-03T09:38:41.973Z,98619.31
2017-12-03T09:39:46.807Z,98622.22
2017-12-03T09:40:51.600Z,98616.02
2017-12-03T09:41:56.427Z,98620.13
2017-12-03T09:43:01.643Z,98613.99
2017-12-03T09:44:06.410Z,98617.25
2017-12-03T09:45:11.084Z,98614.78
2017-12-03T09:46:15.826Z,98619.72
2017-12-03T09:47:20.674Z,98613.55
2017-12-03T09:48:25.522Z,98612.31
2017-12-03T09:49:30.657Z,98614.37
2017-12-03T09:50:35.440Z,98613.96
2017-12-03T09:51:40.228Z,98604.95
2017-12-03T09:52:45.082Z,98613.55
2017-12-03T09:53:49.897Z,98611.52
2017-12-03T09:54:54.931Z,98610.28
2017-12-03T09:56:00.138Z,98612.31
2017-12-03T09:57:04.953Z,98615.20
2017-12-03T09:58:09.933Z,98610.29
2017-12-03T09:59:14.712Z,98609.44
2017-12-03T10:00:19.534Z,98606.58
2017-12-03T10:01:24.338Z,98604.09
2017-12-03T10:02:29.510Z,98609.03
2017-12-03T10:03:34.273Z,98608.23
2017-12-03T10:04:39.080Z,98608.20
2017-12-03T10:05:44.536Z,98614.81
2017-12-03T10:06:49.366Z,98609.46
2017-12-03T10:07:54.120Z,98603.30
2017-12-03T10:08:59.244Z,98604.91
2017-12-03T10:10:04.507Z,98611.11
2017-12-03T10:11:10.052Z,98608.64
2017-12-03T10:12:14.928Z,98609.85
2017-12-03T10:13:19.681Z,98611.94
2017-12-03T10:14:24.551Z,98607.38
2017-12-03T10:15:29.553Z,98605.73
2017-12-03T10:16:34.330Z,98610.67
2017-12-03T10:17:39.078Z,98600.39
2017-12-03T10:18:43.858Z,98601.21
2017-12-03T10:19:48.654Z,98597.10
2017-12-03T10:20:53.413Z,98605.33
2017-12-03T10:21:58.509Z,98601.21
2017-12-03T10:23:03.250Z,98599.57
2017-12-03T10:24:08.142Z,98598.33
2017-12-03T10:25:12.862Z,98600.41
2017-12-03T10:26:17.622Z,98599.98
2017-12-03T10:27:22.450Z,98598.75
2017-12-03T10:28:27.608Z,98599.16
2017-12-03T10:29:32.509Z,98602.03
2017-12-03T10:30:37.260Z,98602.45
2017-12-03T10:31:42.065Z,98593.02
2017-12-03T10:32:46.860Z,98593.40
2017-12-03T10:33:51.546Z,98598.34
2017-12-03T10:34:56.576Z,98590.52
2017-12-03T10:36:01.305Z,98597.92
2017-12-03T10:37:06.058Z,98591.75
2017-12-03T10:38:15.031Z,98592.57
2017-12-03T10:39:19.745Z,98590.52
2017-12-03T10:40:24.532Z,98587.25
2017-12-03T10:41:29.543Z,98589.72
2017-12-03T10:42:34.864Z,98591.75
2017-12-03T10:43:39.598Z,98585.61
2017-12-03T10:44:44.310Z,98583.55
2017-12-03T10:45:48.997Z,98590.52
2017-12-03T10:46:53.703Z,98583.55
2017-12-03T10:47:58.687Z,98587.25
2017-12-03T10:49:03.390Z,98584.78
2017-12-03T10:50:08.154Z,98590.95
2017-12-03T10:51:12.911Z,98576.55
2017-12-03T10:52:17.709Z,98585.20
2017-12-03T10:53:22.420Z,98578.21
2017-12-03T10:54:27.494Z,98583.95
2017-12-03T10:55:32.177Z,98581.09
2017-12-03T10:56:36.956Z,98579.02
2017-12-03T10:57:41.645Z,98580.67
2017-12-03T10:58:46.338Z,98579.02
2017-12-03T10:59:51.128Z,98574.08
2017-12-03T11:00:56.455Z,98575.72
2017-12-03T11:02:01.146Z,98569.98
2017-12-03T11:03:05.920Z,98570.38
2017-12-03T11:04:10.680Z,98569.95
2017-12-03T11:05:15.468Z,98566.69
2017-12-03T11:06:20.143Z,98565.45
2017-12-03T11:07:25.161Z,98568.72
2017-12-03T11:08:29.960Z,98566.69
2017-12-03T11:09:34.677Z,98561.73
2017-12-03T11:10:39.412Z,98560.08
2017-12-03T11:11:44.213Z,98564.62
2017-12-03T11:12:48.980Z,98562.16
2017-12-03T11:13:53.956Z,98560.10
2017-12-03T11:14:58.642Z,98562.14
2017-12-03T11:16:03.318Z,98559.66
2017-12-03T11:17:08.099Z,98551.85
2017-12-03T11:18:13.047Z,98551.45
2017-12-03T11:19:17.735Z,98551.86
2017-12-03T11:20:22.757Z,98560.08
2017-12-03T11:21:27.456Z,98559.25
2017-12-03T11:22:32.170Z,98558.84
2017-12-03T11:23:36.890Z,98561.73
2017-12-03T11:24:42.714Z,98560.52
2017-12-03T11:25:47.467Z,98558.03
2017-12-03T11:26:52.503Z,98553.94
2017-12-03T11:27:57.323Z,98555.17
2017-12-03T11:29:02.031Z,98558.05
2017-12-03T11:30:06.751Z,98556.80
2017-12-03T11:31:11.595Z,98554.34
2017-12-03T11:32:16.548Z,98555.17
2017-12-03T11:33:21.638Z,98557.62
2017-12-03T11:34:26.418Z,98558.88
2017-12-03T11:35:32.055Z,98551.86
2017-12-03T11:36:36.778Z,98557.23
2017-12-03T11:37:41.398Z,98548.58
2017-12-03T11:38:46.238Z,98550.63
2017-12-03T11:39:51.310Z,98549.41
2017-12-03T11:40:55.895Z,98545.70
2017-12-03T11:42:00.618Z,98549.39
2017-12-03T11:43:05.313Z,98545.72
2017-12-03T11:44:09.983Z,98545.30
2017-12-03T11:45:14.628Z,98542.40
2017-12-03T11:46:20.556Z,98539.11
2017-12-03T11:47:25.239Z,98540.75
2017-12-03T11:48:29.922Z,98536.66
2017-12-03T11:49:34.605Z,98537.91
2017-12-03T11:50:39.397Z,98535.44
2017-12-03T11:51:44.737Z,98529.66
2017-12-03T11:52:49.786Z,98531.28
2017-12-03T11:53:54.511Z,98536.23
2017-12-03T11:54:59.264Z,98530.89
2017-12-03T11:56:04.040Z,98530.88
2017-12-03T11:57:08.877Z,98521.45
2017-12-03T11:58:13.591Z,98528.42
2017-12-03T11:59:18.700Z,98520.20
2017-12-03T12:00:23.441Z,98512.81
2017-12-03T12:01:28.120Z,98514.84
2017-12-03T12:02:32.849Z,98514.03
2017-12-03T12:03:37.499Z,98511.96
2017-12-03T12:04:42.173Z,98508.27
2017-12-03T12:05:47.159Z,98516.49
2017-12-03T12:06:51.873Z,98517.34
2017-12-03T12:07:56.625Z,98513.61
2017-12-03T12:09:01.407Z,98514.86
2017-12-03T12:10:06.077Z,98521.84
2017-12-03T12:11:10.795Z,98517.73
2017-12-03T12:12:15.337Z,98522.27
2017-12-03T12:13:19.883Z,98523.88
2017-12-03T12:14:24.579Z,98518.14
2017-12-03T12:15:29.216Z,98518.58
2017-12-03T12:16:33.845Z,98518.54
2017-12-03T12:17:38.637Z,98512.35
2017-12-03T12:18:43.786Z,98513.19
2017-12-03T12:19:48.684Z,98511.53
2017-12-03T12:20:53.441Z,98510.72
2017-12-03T12:21:58.260Z,98512.33
2017-12-03T12:23:03.108Z,98509.43
2017-12-03T12:24:07.875Z,98507.41
2017-12-03T12:25:12.935Z,98511.12
2017-12-03T12:26:17.726Z,98510.73
2017-12-03T12:27:22.513Z,98507.00
2017-12-03T12:28:27.259Z,98507.42
2017-12-03T12:29:32.194Z,98506.60
2017-12-03T12:30:36.925Z,98514.01
2017-12-03T12:31:42.081Z,98510.69
2017-12-03T12:32:46.902Z,98510.69
2017-12-03T12:33:51.730Z,98508.63
2017-12-03T12:34:56.738Z,98506.60
2017-12-03T12:36:01.720Z,98515.22
2017-12-03T12:37:06.672Z,98514.43
2017-12-03T12:38:12.443Z,98509.84
2017-12-03T12:39:20.272Z,98503.73
2017-12-03T12:40:25.055Z,98504.53
2017-12-03T12:41:29.655Z,98502.88